sensor_id;sensor_type;location;lat;lon;timestamp;pressure;altitude;pressure_sealevel;temperature;humidity
13011;BME280;6786;57.632;11.962;2024-01-07T00:00:00;102234.22;;;17.69;28.16
13011;BME280;6786;57.632;11.962;2024-01-07T00:02:28;102239.56;;;17.69;28.17
13011;BME280;6786;57.632;11.962;2024-01-07T00:04:57;102245.72;;;17.71;28.12
13011;BME280;6786;57.632;11.962;2024-01-07T00:07:27;102245.72;;;17.71;28.17
13011;BME280;6786;57.632;11.962;2024-01-07T00:09:55;102253.72;;;17.71;28.26
13011;BME280;6786;57.632;11.962;2024-01-07T00:12:24;102257.34;;;17.70;28.16
13011;BME280;6786;57.632;11.962;2024-01-07T00:14:52;102246.81;;;17.67;28.12
13011;BME280;6786;57.632;11.962;2024-01-07T00:17:21;102255.63;;;17.69;28.13
13011;BME280;6786;57.632;11.962;2024-01-07T00:19:49;102260.09;;;17.68;28.23
13011;BME280;6786;57.632;11.962;2024-01-07T00:22:17;102256.59;;;17.68;28.16
13011;BME280;6786;57.632;11.962;2024-01-07T00:24:47;102255.78;;;17.66;28.23
13011;BME280;6786;57.632;11.962;2024-01-07T00:27:15;102254.75;;;17.68;28.07
13011;BME280;6786;57.632;11.962;2024-01-07T00:29:44;102260.97;;;17.69;28.27
13011;BME280;6786;57.632;11.962;2024-01-07T00:32:12;102261.84;;;17.69;28.15
13011;BME280;6786;57.632;11.962;2024-01-07T00:34:41;102254.09;;;17.65;28.33
13011;BME280;6786;57.632;11.962;2024-01-07T00:37:09;102261.94;;;17.68;28.04
13011;BME280;6786;57.632;11.962;2024-01-07T00:39:38;102255.63;;;17.69;28.24
13011;BME280;6786;57.632;11.962;2024-01-07T00:42:07;102254.84;;;17.67;28.17
13011;BME280;6786;57.632;11.962;2024-01-07T00:44:37;102271.66;;;17.69;28.07
13011;BME280;6786;57.632;11.962;2024-01-07T00:47:05;102263.66;;;17.69;28.20
13011;BME280;6786;57.632;11.962;2024-01-07T00:49:33;102271.66;;;17.69;28.13
13011;BME280;6786;57.632;11.962;2024-01-07T00:52:02;102271.66;;;17.69;28.04
13011;BME280;6786;57.632;11.962;2024-01-07T00:54:30;102274.44;;;17.67;28.26
13011;BME280;6786;57.632;11.962;2024-01-07T00:56:59;102286.00;;;17.68;28.14
13011;BME280;6786;57.632;11.962;2024-01-07T00:59:29;102275.31;;;17.68;28.22
13011;BME280;6786;57.632;11.962;2024-01-07T01:01:58;102280.81;;;17.65;28.14
13011;BME280;6786;57.632;11.962;2024-01-07T01:04:26;102287.97;;;17.64;28.14
13011;BME280;6786;57.632;11.962;2024-01-07T01:06:54;102285.66;;;17.58;28.06
13011;BME280;6786;57.632;11.962;2024-01-07T01:09:23;102291.34;;;17.68;28.16
13011;BME280;6786;57.632;11.962;2024-01-07T01:11:51;102299.38;;;17.68;28.11
13011;BME280;6786;57.632;11.962;2024-01-07T01:14:19;102299.38;;;17.68;28.11
13011;BME280;6786;57.632;11.962;2024-01-07T01:16:49;102302.03;;;17.68;28.02
13011;BME280;6786;57.632;11.962;2024-01-07T01:19:18;102307.38;;;17.68;28.11
13011;BME280;6786;57.632;11.962;2024-01-07T01:21:46;102314.44;;;17.69;28.11
13011;BME280;6786;57.632;11.962;2024-01-07T01:24:14;102307.38;;;17.68;28.16
13011;BME280;6786;57.632;11.962;2024-01-07T01:26:43;102307.38;;;17.68;28.08
13011;BME280;6786;57.632;11.962;2024-01-07T01:29:11;102323.44;;;17.68;28.21
13011;BME280;6786;57.632;11.962;2024-01-07T01:31:39;102311.94;;;17.66;28.05
13011;BME280;6786;57.632;11.962;2024-01-07T01:34:09;102321.50;;;17.70;27.96
13011;BME280;6786;57.632;11.962;2024-01-07T01:36:38;102317.13;;;17.69;27.93
13011;BME280;6786;57.632;11.962;2024-01-07T01:39:06;102311.78;;;17.69;28.19
13011;BME280;6786;57.632;11.962;2024-01-07T01:41:34;102319.78;;;17.69;27.96
13011;BME280;6786;57.632;11.962;2024-01-07T01:44:03;102324.28;;;17.68;27.97
13011;BME280;6786;57.632;11.962;2024-01-07T01:46:31;102330.50;;;17.69;27.99
13011;BME280;6786;57.632;11.962;2024-01-07T01:49:00;102326.09;;;17.68;27.95
13011;BME280;6786;57.632;11.962;2024-01-07T01:51:31;102318.09;;;17.68;28.05
13011;BME280;6786;57.632;11.962;2024-01-07T01:53:59;102318.09;;;17.68;28.02
13011;BME280;6786;57.632;11.962;2024-01-07T01:56:29;102323.44;;;17.68;27.88
13011;BME280;6786;57.632;11.962;2024-01-07T01:58:57;102319.97;;;17.66;28.01
13011;BME280;6786;57.632;11.962;2024-01-07T02:01:26;102323.44;;;17.68;27.89
13011;BME280;6786;57.632;11.962;2024-01-07T02:03:55;102313.09;;;17.62;27.98
13011;BME280;6786;57.632;11.962;2024-01-07T02:06:24;102331.38;;;17.69;27.87
13011;BME280;6786;57.632;11.962;2024-01-07T02:08:54;102330.50;;;17.69;27.97
13011;BME280;6786;57.632;11.962;2024-01-07T02:11:23;102335.84;;;17.69;27.99
13011;BME280;6786;57.632;11.962;2024-01-07T02:13:51;102336.72;;;17.69;27.99
13011;BME280;6786;57.632;11.962;2024-01-07T02:16:20;102341.19;;;17.69;27.84
13011;BME280;6786;57.632;11.962;2024-01-07T02:18:48;102341.19;;;17.69;27.90
13011;BME280;6786;57.632;11.962;2024-01-07T02:21:16;102341.19;;;17.69;27.87
13011;BME280;6786;57.632;11.962;2024-01-07T02:23:45;102345.66;;;17.68;27.84
13011;BME280;6786;57.632;11.962;2024-01-07T02:26:14;102341.19;;;17.69;27.98
13011;BME280;6786;57.632;11.962;2024-01-07T02:28:43;102335.84;;;17.69;27.86
13011;BME280;6786;57.632;11.962;2024-01-07T02:31:11;102346.53;;;17.69;27.92
13011;BME280;6786;57.632;11.962;2024-01-07T02:33:39;102343.25;;;17.63;27.97
13011;BME280;6786;57.632;11.962;2024-01-07T02:36:08;102338.59;;;17.67;27.95
13011;BME280;6786;57.632;11.962;2024-01-07T02:38:36;102349.22;;;17.69;27.97
13011;BME280;6786;57.632;11.962;2024-01-07T02:41:05;102342.16;;;17.68;27.92
13011;BME280;6786;57.632;11.962;2024-01-07T02:43:34;102351.00;;;17.68;28.01
13011;BME280;6786;57.632;11.962;2024-01-07T02:46:03;102351.88;;;17.69;27.78
13011;BME280;6786;57.632;11.962;2024-01-07T02:48:31;102350.16;;;17.68;27.97
13011;BME280;6786;57.632;11.962;2024-01-07T02:51:00;102362.59;;;17.69;27.88
13011;BME280;6786;57.632;11.962;2024-01-07T02:53:30;102357.22;;;17.69;27.90
13011;BME280;6786;57.632;11.962;2024-01-07T02:55:58;102359.13;;;17.67;27.99
13011;BME280;6786;57.632;11.962;2024-01-07T02:58:27;102358.19;;;17.68;27.78
13011;BME280;6786;57.632;11.962;2024-01-07T03:00:57;102365.16;;;17.70;27.92
13011;BME280;6786;57.632;11.962;2024-01-07T03:03:25;102362.59;;;17.69;27.85
13011;BME280;6786;57.632;11.962;2024-01-07T03:05:53;102367.94;;;17.69;27.88
13011;BME280;6786;57.632;11.962;2024-01-07T03:08:22;102366.22;;;17.68;27.88
13011;BME280;6786;57.632;11.962;2024-01-07T03:10:50;102362.75;;;17.66;27.96
13011;BME280;6786;57.632;11.962;2024-01-07T03:13:19;102367.94;;;17.69;28.00
13011;BME280;6786;57.632;11.962;2024-01-07T03:15:47;102367.94;;;17.69;27.94
13011;BME280;6786;57.632;11.962;2024-01-07T03:18:17;102363.38;;;17.71;27.72
13011;BME280;6786;57.632;11.962;2024-01-07T03:20:45;102367.94;;;17.69;27.92
13011;BME280;6786;57.632;11.962;2024-01-07T03:23:14;102374.16;;;17.69;27.77
13011;BME280;6786;57.632;11.962;2024-01-07T03:25:42;102383.97;;;17.69;27.97
13011;BME280;6786;57.632;11.962;2024-01-07T03:28:10;102389.31;;;17.69;27.85
13011;BME280;6786;57.632;11.962;2024-01-07T03:30:39;102390.19;;;17.69;27.82
13011;BME280;6786;57.632;11.962;2024-01-07T03:33:07;102383.97;;;17.69;27.79
13011;BME280;6786;57.632;11.962;2024-01-07T03:35:37;102373.28;;;17.69;27.94
13011;BME280;6786;57.632;11.962;2024-01-07T03:38:05;102369.97;;;17.63;27.74
13011;BME280;6786;57.632;11.962;2024-01-07T03:40:34;102371.56;;;17.68;27.88
13011;BME280;6786;57.632;11.962;2024-01-07T03:43:02;102375.16;;;17.67;27.80
13011;BME280;6786;57.632;11.962;2024-01-07T03:45:31;102375.94;;;17.69;27.69
13011;BME280;6786;57.632;11.962;2024-01-07T03:47:59;102378.63;;;17.69;27.80
13011;BME280;6786;57.632;11.962;2024-01-07T03:50:27;102378.63;;;17.69;27.78
13011;BME280;6786;57.632;11.962;2024-01-07T03:52:57;102383.09;;;17.68;27.88
13011;BME280;6786;57.632;11.962;2024-01-07T03:55:25;102356.03;;;17.58;27.69
13011;BME280;6786;57.632;11.962;2024-01-07T03:57:54;102367.94;;;17.69;27.71
13011;BME280;6786;57.632;11.962;2024-01-07T04:00:22;102366.22;;;17.68;27.68
13011;BME280;6786;57.632;11.962;2024-01-07T04:02:50;102365.25;;;17.69;27.79
13011;BME280;6786;57.632;11.962;2024-01-07T04:05:19;102366.22;;;17.68;27.65
13011;BME280;6786;57.632;11.962;2024-01-07T04:07:47;102366.22;;;17.68;27.81
13011;BME280;6786;57.632;11.962;2024-01-07T04:10:17;102365.34;;;17.67;27.60
13011;BME280;6786;57.632;11.962;2024-01-07T04:12:46;102368.09;;;17.66;27.83
13011;BME280;6786;57.632;11.962;2024-01-07T04:15:15;102379.59;;;17.68;27.78
13011;BME280;6786;57.632;11.962;2024-01-07T04:17:43;102347.56;;;17.50;27.72
13011;BME280;6786;57.632;11.962;2024-01-07T04:20:13;102383.97;;;17.69;27.84
13011;BME280;6786;57.632;11.962;2024-01-07T04:22:41;102378.63;;;17.69;27.82
13011;BME280;6786;57.632;11.962;2024-01-07T04:25:10;102378.63;;;17.69;27.76
13011;BME280;6786;57.632;11.962;2024-01-07T04:27:40;102370.53;;;17.70;27.71
13011;BME280;6786;57.632;11.962;2024-01-07T04:30:08;102376.75;;;17.71;27.70
13011;BME280;6786;57.632;11.962;2024-01-07T04:32:37;102376.75;;;17.71;27.55
13011;BME280;6786;57.632;11.962;2024-01-07T04:35:06;102372.41;;;17.68;27.69
13011;BME280;6786;57.632;11.962;2024-01-07T04:37:35;102373.28;;;17.69;27.65
13011;BME280;6786;57.632;11.962;2024-01-07T04:40:04;102375.06;;;17.68;27.54
13011;BME280;6786;57.632;11.962;2024-01-07T04:42:33;102378.63;;;17.69;27.58
13011;BME280;6786;57.632;11.962;2024-01-07T04:45:04;102383.09;;;17.68;27.58
13011;BME280;6786;57.632;11.962;2024-01-07T04:47:33;102382.25;;;17.68;27.57
13011;BME280;6786;57.632;11.962;2024-01-07T04:50:03;102383.97;;;17.69;27.53
13011;BME280;6786;57.632;11.962;2024-01-07T04:52:31;102389.31;;;17.69;27.67
13011;BME280;6786;57.632;11.962;2024-01-07T04:55:00;102391.13;;;17.68;27.59
13011;BME280;6786;57.632;11.962;2024-01-07T04:57:28;102389.50;;;17.66;27.69
13011;BME280;6786;57.632;11.962;2024-01-07T04:59:56;102403.66;;;17.68;27.71
13011;BME280;6786;57.632;11.962;2024-01-07T05:02:26;102394.66;;;17.69;27.67
13011;BME280;6786;57.632;11.962;2024-01-07T05:04:54;102400.19;;;17.66;27.56
13011;BME280;6786;57.632;11.962;2024-01-07T05:07:23;102411.69;;;17.68;27.52
13011;BME280;6786;57.632;11.962;2024-01-07T05:09:51;102405.38;;;17.69;27.57
13011;BME280;6786;57.632;11.962;2024-01-07T05:12:20;102409.00;;;17.68;27.73
13011;BME280;6786;57.632;11.962;2024-01-07T05:14:48;102403.66;;;17.68;27.58
13011;BME280;6786;57.632;11.962;2024-01-07T05:17:16;102409.00;;;17.68;27.57
13011;BME280;6786;57.632;11.962;2024-01-07T05:19:46;102412.59;;;17.67;27.48
13011;BME280;6786;57.632;11.962;2024-01-07T05:22:15;102412.59;;;17.67;27.53
13011;BME280;6786;57.632;11.962;2024-01-07T05:24:43;102413.47;;;17.67;27.65
13011;BME280;6786;57.632;11.962;2024-01-07T05:27:12;102419.69;;;17.68;27.70
13011;BME280;6786;57.632;11.962;2024-01-07T05:29:44;102419.69;;;17.68;27.55
13011;BME280;6786;57.632;11.962;2024-01-07T05:32:13;102424.16;;;17.67;27.65
13011;BME280;6786;57.632;11.962;2024-01-07T05:34:41;102420.63;;;17.67;27.65
13011;BME280;6786;57.632;11.962;2024-01-07T05:37:11;102421.56;;;17.66;27.67
13011;BME280;6786;57.632;11.962;2024-01-07T05:39:39;102437.44;;;17.69;27.61
13011;BME280;6786;57.632;11.962;2024-01-07T05:42:08;102437.44;;;17.69;27.65
13011;BME280;6786;57.632;11.962;2024-01-07T05:44:36;102442.81;;;17.69;27.59
13011;BME280;6786;57.632;11.962;2024-01-07T05:47:04;102437.44;;;17.69;27.68
13011;BME280;6786;57.632;11.962;2024-01-07T05:49:33;102449.94;;;17.68;27.52
13011;BME280;6786;57.632;11.962;2024-01-07T05:52:01;102442.81;;;17.69;27.56
13011;BME280;6786;57.632;11.962;2024-01-07T05:54:31;102450.81;;;17.69;27.55
13011;BME280;6786;57.632;11.962;2024-01-07T05:57:00;102442.81;;;17.69;27.50
13011;BME280;6786;57.632;11.962;2024-01-07T05:59:28;102453.50;;;17.69;27.55
13011;BME280;6786;57.632;11.962;2024-01-07T06:01:59;102448.16;;;17.69;27.32
13011;BME280;6786;57.632;11.962;2024-01-07T06:04:28;102457.97;;;17.68;27.68
13011;BME280;6786;57.632;11.962;2024-01-07T06:06:56;102453.50;;;17.69;27.56
13011;BME280;6786;57.632;11.962;2024-01-07T06:09:25;102460.56;;;17.70;27.54
13011;BME280;6786;57.632;11.962;2024-01-07T06:11:56;102467.66;;;17.71;27.73
13011;BME280;6786;57.632;11.962;2024-01-07T06:14:24;102461.44;;;17.70;27.62
13011;BME280;6786;57.632;11.962;2024-01-07T06:16:52;102472.13;;;17.70;27.52
13011;BME280;6786;57.632;11.962;2024-01-07T06:19:21;102477.47;;;17.70;27.59
13011;BME280;6786;57.632;11.962;2024-01-07T06:21:49;102475.78;;;17.69;27.51
13011;BME280;6786;57.632;11.962;2024-01-07T06:24:18;102473.94;;;17.70;27.56
13011;BME280;6786;57.632;11.962;2024-01-07T06:26:46;102480.25;;;17.69;27.36
13011;BME280;6786;57.632;11.962;2024-01-07T06:29:16;102471.44;;;17.67;27.34
13011;BME280;6786;57.632;11.962;2024-01-07T06:31:45;102475.78;;;17.69;27.57
13011;BME280;6786;57.632;11.962;2024-01-07T06:34:15;102480.25;;;17.69;27.54
13011;BME280;6786;57.632;11.962;2024-01-07T06:36:44;102485.59;;;17.69;27.48
13011;BME280;6786;57.632;11.962;2024-01-07T06:39:12;102492.66;;;17.70;27.55
13011;BME280;6786;57.632;11.962;2024-01-07T06:41:40;102488.19;;;17.70;27.60
13011;BME280;6786;57.632;11.962;2024-01-07T06:44:08;102498.00;;;17.70;27.62
13011;BME280;6786;57.632;11.962;2024-01-07T06:46:38;102497.16;;;17.69;27.51
13011;BME280;6786;57.632;11.962;2024-01-07T06:49:06;102497.16;;;17.69;27.49
13011;BME280;6786;57.632;11.962;2024-01-07T06:51:37;102505.25;;;17.68;27.57
13011;BME280;6786;57.632;11.962;2024-01-07T06:54:06;102506.09;;;17.68;27.58
13011;BME280;6786;57.632;11.962;2024-01-07T06:56:38;102499.91;;;17.68;27.52
13011;BME280;6786;57.632;11.962;2024-01-07T06:59:06;102505.25;;;17.68;27.49
13011;BME280;6786;57.632;11.962;2024-01-07T07:01:35;102506.97;;;17.69;27.61
13011;BME280;6786;57.632;11.962;2024-01-07T07:04:05;102496.44;;;17.66;27.56
13011;BME280;6786;57.632;11.962;2024-01-07T07:06:34;102500.59;;;17.71;27.62
13011;BME280;6786;57.632;11.962;2024-01-07T07:09:02;102506.81;;;17.72;27.50
13011;BME280;6786;57.632;11.962;2024-01-07T07:11:31;102508.38;;;17.76;27.65
13011;BME280;6786;57.632;11.962;2024-01-07T07:14:00;102492.84;;;17.82;27.97
13011;BME280;6786;57.632;11.962;2024-01-07T07:16:28;102494.94;;;17.93;27.66
13011;BME280;6786;57.632;11.962;2024-01-07T07:18:56;102489.41;;;17.96;27.56
13011;BME280;6786;57.632;11.962;2024-01-07T07:21:26;102499.78;;;18.02;27.57
13011;BME280;6786;57.632;11.962;2024-01-07T07:23:55;102510.50;;;18.02;27.60
13011;BME280;6786;57.632;11.962;2024-01-07T07:26:23;102508.75;;;18.01;27.75
13011;BME280;6786;57.632;11.962;2024-01-07T07:28:52;102513.91;;;18.04;27.60
13011;BME280;6786;57.632;11.962;2024-01-07T07:31:20;102517.38;;;18.06;27.60
13011;BME280;6786;57.632;11.962;2024-01-07T07:33:49;102517.38;;;18.06;27.70
13011;BME280;6786;57.632;11.962;2024-01-07T07:36:17;102516.50;;;18.05;27.66
13011;BME280;6786;57.632;11.962;2024-01-07T07:38:47;102510.31;;;18.05;27.57
13011;BME280;6786;57.632;11.962;2024-01-07T07:41:15;102513.91;;;18.04;27.60
13011;BME280;6786;57.632;11.962;2024-01-07T07:43:44;102521.03;;;18.05;27.50
13011;BME280;6786;57.632;11.962;2024-01-07T07:46:12;102522.75;;;18.06;27.54
13011;BME280;6786;57.632;11.962;2024-01-07T07:48:43;102521.88;;;18.05;27.47
13011;BME280;6786;57.632;11.962;2024-01-07T07:51:11;102522.75;;;18.06;27.62
13011;BME280;6786;57.632;11.962;2024-01-07T07:53:40;102525.88;;;18.14;27.51
13011;BME280;6786;57.632;11.962;2024-01-07T07:56:10;102528.38;;;18.17;27.49
13011;BME280;6786;57.632;11.962;2024-01-07T07:58:38;102532.75;;;18.18;27.42
13011;BME280;6786;57.632;11.962;2024-01-07T08:01:06;102541.75;;;18.17;27.49
13011;BME280;6786;57.632;11.962;2024-01-07T08:03:35;102540.00;;;18.16;27.57
13011;BME280;6786;57.632;11.962;2024-01-07T08:06:04;102538.28;;;18.15;27.42
13011;BME280;6786;57.632;11.962;2024-01-07T08:08:37;102550.88;;;18.13;27.49
13011;BME280;6786;57.632;11.962;2024-01-07T08:11:06;102556.22;;;18.13;27.59
13011;BME280;6786;57.632;11.962;2024-01-07T08:13:38;102551.03;;;18.10;27.48
13011;BME280;6786;57.632;11.962;2024-01-07T08:16:06;102562.53;;;18.12;27.59
13011;BME280;6786;57.632;11.962;2024-01-07T08:18:36;102559.88;;;18.12;27.50
13011;BME280;6786;57.632;11.962;2024-01-07T08:21:05;102566.94;;;18.13;27.58
13011;BME280;6786;57.632;11.962;2024-01-07T08:23:33;102566.94;;;18.13;27.56
13011;BME280;6786;57.632;11.962;2024-01-07T08:26:03;102547.78;;;18.05;27.48
13011;BME280;6786;57.632;11.962;2024-01-07T08:28:31;102483.34;;;17.61;27.72
13011;BME280;6786;57.632;11.962;2024-01-07T08:31:01;102577.72;;;18.11;27.54
13011;BME280;6786;57.632;11.962;2024-01-07T08:33:30;102583.94;;;18.12;27.61
13011;BME280;6786;57.632;11.962;2024-01-07T08:36:00;102586.63;;;18.12;27.62
13011;BME280;6786;57.632;11.962;2024-01-07T08:38:28;102591.09;;;18.11;27.55
13011;BME280;6786;57.632;11.962;2024-01-07T08:40:57;102591.97;;;18.12;27.66
13011;BME280;6786;57.632;11.962;2024-01-07T08:43:25;102603.56;;;18.12;27.62
13011;BME280;6786;57.632;11.962;2024-01-07T08:45:53;102592.94;;;18.11;27.63
13011;BME280;6786;57.632;11.962;2024-01-07T08:48:23;102603.56;;;18.12;27.71
13011;BME280;6786;57.632;11.962;2024-01-07T08:50:52;102593.69;;;18.13;27.71
13011;BME280;6786;57.632;11.962;2024-01-07T08:53:20;102609.75;;;18.13;27.75
13011;BME280;6786;57.632;11.962;2024-01-07T08:55:49;102597.31;;;18.12;27.62
13011;BME280;6786;57.632;11.962;2024-01-07T08:58:17;102609.75;;;18.13;27.59
13011;BME280;6786;57.632;11.962;2024-01-07T09:00:46;102608.03;;;18.12;27.70
13011;BME280;6786;57.632;11.962;2024-01-07T09:03:15;102608.03;;;18.12;27.70
13011;BME280;6786;57.632;11.962;2024-01-07T09:05:44;102613.22;;;18.15;27.71
13011;BME280;6786;57.632;11.962;2024-01-07T09:08:13;102613.22;;;18.15;27.58
13011;BME280;6786;57.632;11.962;2024-01-07T09:10:42;102616.69;;;18.17;27.63
13011;BME280;6786;57.632;11.962;2024-01-07T09:13:10;102622.03;;;18.17;27.74
13011;BME280;6786;57.632;11.962;2024-01-07T09:15:40;102622.88;;;18.17;27.75
13011;BME280;6786;57.632;11.962;2024-01-07T09:18:08;102587.38;;;17.98;27.66
13011;BME280;6786;57.632;11.962;2024-01-07T09:20:37;102618.91;;;18.09;27.79
13011;BME280;6786;57.632;11.962;2024-01-07T09:23:07;102629.44;;;18.12;27.60
13011;BME280;6786;57.632;11.962;2024-01-07T09:25:35;102634.78;;;18.12;27.63
13011;BME280;6786;57.632;11.962;2024-01-07T09:28:04;102645.50;;;18.12;27.74
13011;BME280;6786;57.632;11.962;2024-01-07T09:30:32;102640.16;;;18.12;27.74
13011;BME280;6786;57.632;11.962;2024-01-07T09:33:01;102645.50;;;18.12;27.63
13011;BME280;6786;57.632;11.962;2024-01-07T09:35:29;102642.03;;;18.10;27.60
13011;BME280;6786;57.632;11.962;2024-01-07T09:37:58;102652.56;;;18.13;27.74
13011;BME280;6786;57.632;11.962;2024-01-07T09:40:28;102637.63;;;18.09;27.75
13011;BME280;6786;57.632;11.962;2024-01-07T09:42:56;102653.44;;;18.13;27.66
13011;BME280;6786;57.632;11.962;2024-01-07T09:45:26;102657.91;;;18.13;27.69
13011;BME280;6786;57.632;11.962;2024-01-07T09:47:57;102658.88;;;18.12;27.75
13011;BME280;6786;57.632;11.962;2024-01-07T09:50:25;102666.91;;;18.12;27.84
13011;BME280;6786;57.632;11.962;2024-01-07T09:52:55;102672.19;;;18.13;27.78
13011;BME280;6786;57.632;11.962;2024-01-07T09:55:32;102679.31;;;18.13;27.56
13011;BME280;6786;57.632;11.962;2024-01-07T09:58:01;102668.78;;;18.10;27.69
13011;BME280;6786;57.632;11.962;2024-01-07T10:00:30;102677.59;;;18.12;27.70
13011;BME280;6786;57.632;11.962;2024-01-07T10:02:58;102690.03;;;18.13;27.59
13011;BME280;6786;57.632;11.962;2024-01-07T10:05:26;102701.63;;;18.13;27.81
13011;BME280;6786;57.632;11.962;2024-01-07T10:07:55;102690.03;;;18.13;27.64
13011;BME280;6786;57.632;11.962;2024-01-07T10:10:24;102699.91;;;18.12;27.75
13011;BME280;6786;57.632;11.962;2024-01-07T10:12:55;102695.38;;;18.13;27.76
13011;BME280;6786;57.632;11.962;2024-01-07T10:15:24;102702.66;;;18.11;27.58
13011;BME280;6786;57.632;11.962;2024-01-07T10:17:55;102708.75;;;18.13;27.65
13011;BME280;6786;57.632;11.962;2024-01-07T10:20:23;102704.38;;;18.12;27.61
13011;BME280;6786;57.632;11.962;2024-01-07T10:22:52;102697.47;;;18.08;27.54
13011;BME280;6786;57.632;11.962;2024-01-07T10:25:20;102700.91;;;18.10;27.75
13011;BME280;6786;57.632;11.962;2024-01-07T10:27:49;102699.97;;;18.11;27.68
13011;BME280;6786;57.632;11.962;2024-01-07T10:30:18;102706.09;;;18.13;27.70
13011;BME280;6786;57.632;11.962;2024-01-07T10:32:49;102704.38;;;18.12;27.74
13011;BME280;6786;57.632;11.962;2024-01-07T10:35:18;102716.78;;;18.13;27.66
13011;BME280;6786;57.632;11.962;2024-01-07T10:37:50;102709.72;;;18.12;27.60
13011;BME280;6786;57.632;11.962;2024-01-07T10:40:18;102711.59;;;18.10;27.57
13011;BME280;6786;57.632;11.962;2024-01-07T10:42:48;102710.03;;;18.06;27.57
13011;BME280;6786;57.632;11.962;2024-01-07T10:45:19;102705.00;;;18.00;27.49
13011;BME280;6786;57.632;11.962;2024-01-07T10:47:49;102720.91;;;18.03;27.43
13011;BME280;6786;57.632;11.962;2024-01-07T10:50:20;102708.31;;;18.05;27.65
13011;BME280;6786;57.632;11.962;2024-01-07T10:52:50;102719.03;;;18.05;27.56
13011;BME280;6786;57.632;11.962;2024-01-07T10:55:26;102717.28;;;18.04;27.49
13011;BME280;6786;57.632;11.962;2024-01-07T10:57:57;102715.41;;;18.06;27.54
13011;BME280;6786;57.632;11.962;2024-01-07T11:00:29;102717.13;;;18.07;27.51
13011;BME280;6786;57.632;11.962;2024-01-07T11:03:05;102715.41;;;18.06;27.43
13011;BME280;6786;57.632;11.962;2024-01-07T11:05:40;102715.22;;;18.09;27.45
13011;BME280;6786;57.632;11.962;2024-01-07T11:08:18;102715.22;;;18.09;27.52
13011;BME280;6786;57.632;11.962;2024-01-07T11:10:50;102715.22;;;18.09;27.44
13011;BME280;6786;57.632;11.962;2024-01-07T11:13:34;102715.22;;;18.09;27.28
13011;BME280;6786;57.632;11.962;2024-01-07T11:16:06;102712.47;;;18.10;27.61
13011;BME280;6786;57.632;11.962;2024-01-07T11:18:45;102714.34;;;18.08;27.31
13011;BME280;6786;57.632;11.962;2024-01-07T11:21:20;102702.81;;;18.08;27.46
13011;BME280;6786;57.632;11.962;2024-01-07T11:23:51;102716.97;;;18.10;27.52
13011;BME280;6786;57.632;11.962;2024-01-07T11:26:20;102715.22;;;18.09;27.57
13011;BME280;6786;57.632;11.962;2024-01-07T11:28:51;102713.53;;;18.08;27.54
13011;BME280;6786;57.632;11.962;2024-01-07T11:31:25;102708.16;;;18.08;27.68
13011;BME280;6786;57.632;11.962;2024-01-07T11:34:10;102713.53;;;18.08;27.62
13011;BME280;6786;57.632;11.962;2024-01-07T11:36:38;102712.66;;;18.07;27.52
13011;BME280;6786;57.632;11.962;2024-01-07T11:39:07;102718.88;;;18.08;27.58
13011;BME280;6786;57.632;11.962;2024-01-07T11:41:38;102714.28;;;18.10;27.57
13011;BME280;6786;57.632;11.962;2024-01-07T11:44:07;102713.19;;;18.14;27.62
13011;BME280;6786;57.632;11.962;2024-01-07T11:46:40;102717.59;;;18.15;27.72
13011;BME280;6786;57.632;11.962;2024-01-07T11:49:08;102681.09;;;17.97;27.70
13011;BME280;6786;57.632;11.962;2024-01-07T11:51:37;102727.19;;;18.19;27.86
13011;BME280;6786;57.632;11.962;2024-01-07T11:54:06;102728.13;;;18.18;27.82
13011;BME280;6786;57.632;11.962;2024-01-07T11:56:35;102721.06;;;18.17;27.71
13011;BME280;6786;57.632;11.962;2024-01-07T11:59:04;102734.44;;;18.17;27.79
13011;BME280;6786;57.632;11.962;2024-01-07T12:01:33;102729.09;;;18.17;27.75
13011;BME280;6786;57.632;11.962;2024-01-07T12:04:03;102726.56;;;18.14;27.90
13011;BME280;6786;57.632;11.962;2024-01-07T12:06:32;102722.00;;;18.16;27.90
13011;BME280;6786;57.632;11.962;2024-01-07T12:09:00;102723.91;;;18.14;27.85
13011;BME280;6786;57.632;11.962;2024-01-07T12:11:30;102723.91;;;18.14;27.87
13011;BME280;6786;57.632;11.962;2024-01-07T12:13:59;102722.16;;;18.13;27.83
13011;BME280;6786;57.632;11.962;2024-01-07T12:16:28;102721.38;;;18.11;27.88
13011;BME280;6786;57.632;11.962;2024-01-07T12:18:57;102722.16;;;18.13;27.86
13011;BME280;6786;57.632;11.962;2024-01-07T12:21:27;102731.13;;;18.12;27.98
13011;BME280;6786;57.632;11.962;2024-01-07T12:23:57;102720.59;;;18.09;28.01
13011;BME280;6786;57.632;11.962;2024-01-07T12:26:27;102725.78;;;18.12;27.91
13011;BME280;6786;57.632;11.962;2024-01-07T12:28:58;102731.13;;;18.12;27.98
13011;BME280;6786;57.632;11.962;2024-01-07T12:31:31;102727.66;;;18.10;28.01
13011;BME280;6786;57.632;11.962;2024-01-07T12:34:00;102716.97;;;18.10;28.00
13011;BME280;6786;57.632;11.962;2024-01-07T12:36:31;102720.59;;;18.09;28.00
13011;BME280;6786;57.632;11.962;2024-01-07T12:38:59;102723.97;;;18.12;28.02
13011;BME280;6786;57.632;11.962;2024-01-07T12:41:28;102723.19;;;18.10;28.12
13011;BME280;6786;57.632;11.962;2024-01-07T12:43:56;102731.13;;;18.12;28.00
13011;BME280;6786;57.632;11.962;2024-01-07T12:46:25;102721.31;;;18.12;28.05
13011;BME280;6786;57.632;11.962;2024-01-07T12:48:53;102727.50;;;18.13;28.17
13011;BME280;6786;57.632;11.962;2024-01-07T12:51:22;102733.72;;;18.13;28.14
13011;BME280;6786;57.632;11.962;2024-01-07T12:53:51;102736.31;;;18.15;28.11
13011;BME280;6786;57.632;11.962;2024-01-07T12:56:20;102736.31;;;18.15;28.02
13011;BME280;6786;57.632;11.962;2024-01-07T12:58:48;102739.97;;;18.14;28.10